sensor_id;sensor_type;location;lat;lon;timestamp;temperature;humidity
7572;DHT22;3827;49.928;8.548;2023-06-22T00:01:19;21.40;99.90
7572;DHT22;3827;49.928;8.548;2023-06-22T00:03:46;21.30;99.90
7572;DHT22;3827;49.928;8.548;2023-06-22T00:06:13;21.30;99.90
7572;DHT22;3827;49.928;8.548;2023-06-22T00:08:40;21.20;99.90
7572;DHT22;3827;49.928;8.548;2023-06-22T00:11:08;21.20;99.90
7572;DHT22;3827;49.928;8.548;2023-06-22T00:13:35;21.20;99.90
7572;DHT22;3827;49.928;8.548;2023-06-22T00:16:02;21.40;99.90
7572;DHT22;3827;49.928;8.548;2023-06-22T00:18:29;21.10;99.90
7572;DHT22;3827;49.928;8.548;2023-06-22T00:20:56;21.10;99.90
7572;DHT22;3827;49.928;8.548;2023-06-22T00:23:26;21.20;99.90
7572;DHT22;3827;49.928;8.548;2023-06-22T00:25:52;21.20;99.90
7572;DHT22;3827;49.928;8.548;2023-06-22T00:28:20;21.20;99.90
7572;DHT22;3827;49.928;8.548;2023-06-22T00:30:48;21.20;99.90
7572;DHT22;3827;49.928;8.548;2023-06-22T00:33:15;21.80;99.90
7572;DHT22;3827;49.928;8.548;2023-06-22T00:35:42;21.20;99.90
7572;DHT22;3827;49.928;8.548;2023-06-22T00:38:09;21.20;99.90
7572;DHT22;3827;49.928;8.548;2023-06-22T00:40:36;21.20;99.90
7572;DHT22;3827;49.928;8.548;2023-06-22T00:43:03;21.20;99.90
7572;DHT22;3827;49.928;8.548;2023-06-22T00:45:31;21.20;99.90
7572;DHT22;3827;49.928;8.548;2023-06-22T00:47:58;21.20;99.90
7572;DHT22;3827;49.928;8.548;2023-06-22T00:50:28;21.20;99.90
7572;DHT22;3827;49.928;8.548;2023-06-22T00:53:00;21.20;99.90
7572;DHT22;3827;49.928;8.548;2023-06-22T00:55:28;21.20;99.90
7572;DHT22;3827;49.928;8.548;2023-06-22T00:57:55;21.20;99.90
7572;DHT22;3827;49.928;8.548;2023-06-22T01:00:23;21.20;99.90
7572;DHT22;3827;49.928;8.548;2023-06-22T01:02:52;21.20;99.90
7572;DHT22;3827;49.928;8.548;2023-06-22T01:05:19;21.20;99.90
7572;DHT22;3827;49.928;8.548;2023-06-22T01:07:56;21.20;99.90
7572;DHT22;3827;49.928;8.548;2023-06-22T01:10:29;20.90;99.90
7572;DHT22;3827;49.928;8.548;2023-06-22T01:13:02;20.70;99.90
7572;DHT22;3827;49.928;8.548;2023-06-22T01:15:31;20.50;99.90
7572;DHT22;3827;49.928;8.548;2023-06-22T01:18:03;20.40;99.90
7572;DHT22;3827;49.928;8.548;2023-06-22T01:20:31;20.30;99.90
7572;DHT22;3827;49.928;8.548;2023-06-22T01:23:07;20.30;99.90
7572;DHT22;3827;49.928;8.548;2023-06-22T01:25:43;20.40;99.90
7572;DHT22;3827;49.928;8.548;2023-06-22T01:28:23;20.30;99.90
7572;DHT22;3827;49.928;8.548;2023-06-22T01:30:52;20.20;99.90
7572;DHT22;3827;49.928;8.548;2023-06-22T01:33:29;20.10;99.90
7572;DHT22;3827;49.928;8.548;2023-06-22T01:35:57;19.90;99.90
7572;DHT22;3827;49.928;8.548;2023-06-22T01:38:25;19.80;99.90
7572;DHT22;3827;49.928;8.548;2023-06-22T01:40:53;19.80;99.90
7572;DHT22;3827;49.928;8.548;2023-06-22T01:43:21;19.70;99.90
7572;DHT22;3827;49.928;8.548;2023-06-22T01:45:49;19.80;99.90
7572;DHT22;3827;49.928;8.548;2023-06-22T01:48:18;20.60;99.90
7572;DHT22;3827;49.928;8.548;2023-06-22T01:50:46;19.70;99.90
7572;DHT22;3827;49.928;8.548;2023-06-22T01:53:13;19.70;99.90
7572;DHT22;3827;49.928;8.548;2023-06-22T01:55:40;19.60;99.90
7572;DHT22;3827;49.928;8.548;2023-06-22T01:58:07;19.60;99.90
7572;DHT22;3827;49.928;8.548;2023-06-22T02:00:36;19.50;99.90
7572;DHT22;3827;49.928;8.548;2023-06-22T02:03:08;19.50;99.90
7572;DHT22;3827;49.928;8.548;2023-06-22T02:05:41;19.50;99.90
7572;DHT22;3827;49.928;8.548;2023-06-22T02:08:12;19.40;99.90
7572;DHT22;3827;49.928;8.548;2023-06-22T02:10:43;19.40;99.90
7572;DHT22;3827;49.928;8.548;2023-06-22T02:13:13;19.50;99.90
7572;DHT22;3827;49.928;8.548;2023-06-22T02:15:40;19.40;99.90
7572;DHT22;3827;49.928;8.548;2023-06-22T02:18:07;19.50;99.90
7572;DHT22;3827;49.928;8.548;2023-06-22T02:20:38;19.40;99.90
7572;DHT22;3827;49.928;8.548;2023-06-22T02:23:05;19.50;99.90
7572;DHT22;3827;49.928;8.548;2023-06-22T02:25:32;19.40;99.90
7572;DHT22;3827;49.928;8.548;2023-06-22T02:27:59;19.40;99.90
7572;DHT22;3827;49.928;8.548;2023-06-22T02:30:26;19.40;99.90
7572;DHT22;3827;49.928;8.548;2023-06-22T02:32:53;17.90;99.90
7572;DHT22;3827;49.928;8.548;2023-06-22T02:35:26;19.50;99.90
7572;DHT22;3827;49.928;8.548;2023-06-22T02:37:58;19.50;99.90
7572;DHT22;3827;49.928;8.548;2023-06-22T02:40:25;19.50;99.90
7572;DHT22;3827;49.928;8.548;2023-06-22T02:42:51;19.40;99.90
7572;DHT22;3827;49.928;8.548;2023-06-22T02:45:18;19.40;99.90
7572;DHT22;3827;49.928;8.548;2023-06-22T02:47:45;20.10;99.90
7572;DHT22;3827;49.928;8.548;2023-06-22T02:50:13;19.30;99.90
7572;DHT22;3827;49.928;8.548;2023-06-22T02:52:40;19.30;99.90
7572;DHT22;3827;49.928;8.548;2023-06-22T02:55:08;19.40;99.90
7572;DHT22;3827;49.928;8.548;2023-06-22T02:57:35;19.40;99.90
7572;DHT22;3827;49.928;8.548;2023-06-22T03:00:03;19.40;99.90
7572;DHT22;3827;49.928;8.548;2023-06-22T03:02:42;19.40;99.90
7572;DHT22;3827;49.928;8.548;2023-06-22T03:05:09;19.40;99.90
7572;DHT22;3827;49.928;8.548;2023-06-22T03:07:39;19.40;99.90
7572;DHT22;3827;49.928;8.548;2023-06-22T03:10:09;19.40;99.90
7572;DHT22;3827;49.928;8.548;2023-06-22T03:12:36;19.40;99.90
7572;DHT22;3827;49.928;8.548;2023-06-22T03:15:05;19.40;99.90
7572;DHT22;3827;49.928;8.548;2023-06-22T03:17:33;19.40;99.90
7572;DHT22;3827;49.928;8.548;2023-06-22T03:19:59;19.40;99.90
7572;DHT22;3827;49.928;8.548;2023-06-22T03:22:26;19.40;99.90
7572;DHT22;3827;49.928;8.548;2023-06-22T03:24:53;19.30;99.90
7572;DHT22;3827;49.928;8.548;2023-06-22T03:27:21;19.30;99.90
7572;DHT22;3827;49.928;8.548;2023-06-22T03:29:48;19.30;99.90
7572;DHT22;3827;49.928;8.548;2023-06-22T03:32:14;19.30;99.90
7572;DHT22;3827;49.928;8.548;2023-06-22T03:34:41;19.30;99.90
7572;DHT22;3827;49.928;8.548;2023-06-22T03:37:13;19.30;99.90
7572;DHT22;3827;49.928;8.548;2023-06-22T03:39:40;19.30;99.90
7572;DHT22;3827;49.928;8.548;2023-06-22T03:42:07;19.30;99.90
7572;DHT22;3827;49.928;8.548;2023-06-22T03:44:35;19.30;99.90
7572;DHT22;3827;49.928;8.548;2023-06-22T03:47:02;19.30;99.90
7572;DHT22;3827;49.928;8.548;2023-06-22T03:49:29;19.30;99.90
7572;DHT22;3827;49.928;8.548;2023-06-22T03:51:56;19.40;99.90
7572;DHT22;3827;49.928;8.548;2023-06-22T03:54:23;19.40;99.90
7572;DHT22;3827;49.928;8.548;2023-06-22T03:56:49;19.50;99.90
7572;DHT22;3827;49.928;8.548;2023-06-22T03:59:16;19.50;99.90
7572;DHT22;3827;49.928;8.548;2023-06-22T04:01:44;19.70;99.90
7572;DHT22;3827;49.928;8.548;2023-06-22T04:04:12;19.50;99.90
7572;DHT22;3827;49.928;8.548;2023-06-22T04:06:38;19.60;99.90
7572;DHT22;3827;49.928;8.548;2023-06-22T04:09:05;19.60;99.90
7572;DHT22;3827;49.928;8.548;2023-06-22T04:11:32;19.70;99.90
7572;DHT22;3827;49.928;8.548;2023-06-22T04:13:59;19.80;99.90
7572;DHT22;3827;49.928;8.548;2023-06-22T04:16:26;19.80;99.90
7572;DHT22;3827;49.928;8.548;2023-06-22T04:18:54;19.90;99.90
7572;DHT22;3827;49.928;8.548;2023-06-22T04:21:21;19.90;99.90
7572;DHT22;3827;49.928;8.548;2023-06-22T04:23:48;19.90;99.90
7572;DHT22;3827;49.928;8.548;2023-06-22T04:26:14;20.00;99.90
7572;DHT22;3827;49.928;8.548;2023-06-22T04:28:41;20.00;99.90
7572;DHT22;3827;49.928;8.548;2023-06-22T04:31:08;20.00;99.90
7572;DHT22;3827;49.928;8.548;2023-06-22T04:33:35;19.20;99.90
7572;DHT22;3827;49.928;8.548;2023-06-22T04:36:03;20.10;99.90
7572;DHT22;3827;49.928;8.548;2023-06-22T04:38:30;20.10;99.90
7572;DHT22;3827;49.928;8.548;2023-06-22T04:40:58;20.10;99.90
7572;DHT22;3827;49.928;8.548;2023-06-22T04:43:26;20.20;99.90
7572;DHT22;3827;49.928;8.548;2023-06-22T04:45:55;20.10;99.90
7572;DHT22;3827;49.928;8.548;2023-06-22T04:48:28;20.20;99.90
7572;DHT22;3827;49.928;8.548;2023-06-22T04:50:58;20.20;99.90
7572;DHT22;3827;49.928;8.548;2023-06-22T04:53:31;20.30;99.90
7572;DHT22;3827;49.928;8.548;2023-06-22T04:55:58;20.30;99.90
7572;DHT22;3827;49.928;8.548;2023-06-22T04:58:25;20.40;99.90
7572;DHT22;3827;49.928;8.548;2023-06-22T05:00:54;21.00;99.90
7572;DHT22;3827;49.928;8.548;2023-06-22T05:03:22;20.40;99.90
7572;DHT22;3827;49.928;8.548;2023-06-22T05:05:51;20.40;99.90
7572;DHT22;3827;49.928;8.548;2023-06-22T05:08:19;20.50;99.90
7572;DHT22;3827;49.928;8.548;2023-06-22T05:10:47;20.50;99.90
7572;DHT22;3827;49.928;8.548;2023-06-22T05:13:14;20.50;99.90
7572;DHT22;3827;49.928;8.548;2023-06-22T05:15:40;20.40;99.90
7572;DHT22;3827;49.928;8.548;2023-06-22T05:18:07;20.50;99.90
7572;DHT22;3827;49.928;8.548;2023-06-22T05:20:34;20.50;99.90
7572;DHT22;3827;49.928;8.548;2023-06-22T05:23:01;20.50;99.90
7572;DHT22;3827;49.928;8.548;2023-06-22T05:25:28;20.60;99.90
7572;DHT22;3827;49.928;8.548;2023-06-22T05:27:59;20.60;99.90
7572;DHT22;3827;49.928;8.548;2023-06-22T05:30:27;20.60;99.90
7572;DHT22;3827;49.928;8.548;2023-06-22T05:32:54;20.60;99.90
7572;DHT22;3827;49.928;8.548;2023-06-22T05:35:21;20.60;99.90
7572;DHT22;3827;49.928;8.548;2023-06-22T05:37:47;20.70;99.90
7572;DHT22;3827;49.928;8.548;2023-06-22T05:40:14;20.70;99.90
7572;DHT22;3827;49.928;8.548;2023-06-22T05:42:41;20.80;99.90
7572;DHT22;3827;49.928;8.548;2023-06-22T05:45:09;20.90;99.90
7572;DHT22;3827;49.928;8.548;2023-06-22T05:47:36;21.00;99.90
7572;DHT22;3827;49.928;8.548;2023-06-22T05:50:04;21.20;99.90
7572;DHT22;3827;49.928;8.548;2023-06-22T05:52:34;21.30;99.90
7572;DHT22;3827;49.928;8.548;2023-06-22T05:55:02;21.40;99.90
7572;DHT22;3827;49.928;8.548;2023-06-22T05:57:28;21.50;99.90
7572;DHT22;3827;49.928;8.548;2023-06-22T05:59:55;21.60;99.90
7572;DHT22;3827;49.928;8.548;2023-06-22T06:02:24;21.70;99.90
7572;DHT22;3827;49.928;8.548;2023-06-22T06:04:50;21.80;99.90
7572;DHT22;3827;49.928;8.548;2023-06-22T06:07:18;21.90;99.90
7572;DHT22;3827;49.928;8.548;2023-06-22T06:09:45;21.90;99.90
7572;DHT22;3827;49.928;8.548;2023-06-22T06:12:11;22.10;99.90
7572;DHT22;3827;49.928;8.548;2023-06-22T06:14:38;22.20;99.90
7572;DHT22;3827;49.928;8.548;2023-06-22T06:17:05;22.40;99.90
7572;DHT22;3827;49.928;8.548;2023-06-22T06:19:33;22.60;99.90
7572;DHT22;3827;49.928;8.548;2023-06-22T06:22:00;22.90;99.90
7572;DHT22;3827;49.928;8.548;2023-06-22T06:24:27;23.00;99.90
7572;DHT22;3827;49.928;8.548;2023-06-22T06:26:54;23.20;99.90
7572;DHT22;3827;49.928;8.548;2023-06-22T06:29:20;23.30;99.90
7572;DHT22;3827;49.928;8.548;2023-06-22T06:31:49;23.30;99.90
7572;DHT22;3827;49.928;8.548;2023-06-22T06:34:15;23.50;99.90
7572;DHT22;3827;49.928;8.548;2023-06-22T06:36:44;23.50;99.90
7572;DHT22;3827;49.928;8.548;2023-06-22T06:39:10;24.20;99.90
7572;DHT22;3827;49.928;8.548;2023-06-22T06:41:37;23.90;99.90
7572;DHT22;3827;49.928;8.548;2023-06-22T06:44:04;23.90;99.90
7572;DHT22;3827;49.928;8.548;2023-06-22T06:46:31;24.00;99.90
7572;DHT22;3827;49.928;8.548;2023-06-22T06:48:58;24.10;99.90
7572;DHT22;3827;49.928;8.548;2023-06-22T06:51:24;24.20;99.90
7572;DHT22;3827;49.928;8.548;2023-06-22T06:53:53;24.40;99.90
7572;DHT22;3827;49.928;8.548;2023-06-22T06:56:20;24.50;99.90
7572;DHT22;3827;49.928;8.548;2023-06-22T06:58:47;24.60;99.90
7572;DHT22;3827;49.928;8.548;2023-06-22T07:01:14;24.80;99.90
7572;DHT22;3827;49.928;8.548;2023-06-22T07:03:40;25.00;99.90
7572;DHT22;3827;49.928;8.548;2023-06-22T07:06:08;25.10;99.90
7572;DHT22;3827;49.928;8.548;2023-06-22T07:08:35;24.90;99.90
7572;DHT22;3827;49.928;8.548;2023-06-22T07:11:03;25.00;99.90
7572;DHT22;3827;49.928;8.548;2023-06-22T07:13:30;25.00;99.90
7572;DHT22;3827;49.928;8.548;2023-06-22T07:15:57;25.00;99.90
7572;DHT22;3827;49.928;8.548;2023-06-22T07:18:24;25.10;99.90
7572;DHT22;3827;49.928;8.548;2023-06-22T07:20:51;25.20;99.90
7572;DHT22;3827;49.928;8.548;2023-06-22T07:23:18;25.40;99.90
7572;DHT22;3827;49.928;8.548;2023-06-22T07:25:45;25.60;99.90
7572;DHT22;3827;49.928;8.548;2023-06-22T07:28:13;25.60;99.90
7572;DHT22;3827;49.928;8.548;2023-06-22T07:30:40;25.70;99.90
7572;DHT22;3827;49.928;8.548;2023-06-22T07:33:07;25.90;99.90
7572;DHT22;3827;49.928;8.548;2023-06-22T07:35:34;25.90;99.90
7572;DHT22;3827;49.928;8.548;2023-06-22T07:38:01;25.70;99.90
7572;DHT22;3827;49.928;8.548;2023-06-22T07:40:28;25.70;99.90
7572;DHT22;3827;49.928;8.548;2023-06-22T07:42:54;25.70;99.90
7572;DHT22;3827;49.928;8.548;2023-06-22T07:45:23;26.00;99.90
7572;DHT22;3827;49.928;8.548;2023-06-22T07:47:50;26.20;99.90
7572;DHT22;3827;49.928;8.548;2023-06-22T07:50:17;26.50;99.90
7572;DHT22;3827;49.928;8.548;2023-06-22T07:52:43;26.60;99.90
7572;DHT22;3827;49.928;8.548;2023-06-22T07:55:10;27.00;99.90
7572;DHT22;3827;49.928;8.548;2023-06-22T07:57:37;27.10;99.90
7572;DHT22;3827;49.928;8.548;2023-06-22T08:00:05;27.00;99.90
7572;DHT22;3827;49.928;8.548;2023-06-22T08:02:41;27.10;99.90
7572;DHT22;3827;49.928;8.548;2023-06-22T08:05:09;27.30;99.90
7572;DHT22;3827;49.928;8.548;2023-06-22T08:07:37;27.40;99.90
7572;DHT22;3827;49.928;8.548;2023-06-22T08:10:05;27.30;99.90
7572;DHT22;3827;49.928;8.548;2023-06-22T08:12:32;27.10;99.90
7572;DHT22;3827;49.928;8.548;2023-06-22T08:14:59;27.30;99.90
7572;DHT22;3827;49.928;8.548;2023-06-22T08:17:26;27.60;99.90
7572;DHT22;3827;49.928;8.548;2023-06-22T08:19:54;27.50;99.90
7572;DHT22;3827;49.928;8.548;2023-06-22T08:22:21;27.50;99.90
7572;DHT22;3827;49.928;8.548;2023-06-22T08:24:48;28.00;99.90
7572;DHT22;3827;49.928;8.548;2023-06-22T08:27:15;27.70;99.90
7572;DHT22;3827;49.928;8.548;2023-06-22T08:29:43;27.60;99.90
7572;DHT22;3827;49.928;8.548;2023-06-22T08:32:11;27.90;99.90
7572;DHT22;3827;49.928;8.548;2023-06-22T08:34:38;28.00;99.90
7572;DHT22;3827;49.928;8.548;2023-06-22T08:37:08;28.10;99.90
7572;DHT22;3827;49.928;8.548;2023-06-22T08:39:35;28.30;99.90
7572;DHT22;3827;49.928;8.548;2023-06-22T08:42:02;28.50;99.90
7572;DHT22;3827;49.928;8.548;2023-06-22T08:44:29;28.40;99.90
7572;DHT22;3827;49.928;8.548;2023-06-22T08:46:56;28.40;99.90
7572;DHT22;3827;49.928;8.548;2023-06-22T08:49:23;28.60;99.90
7572;DHT22;3827;49.928;8.548;2023-06-22T08:51:49;28.80;99.90
7572;DHT22;3827;49.928;8.548;2023-06-22T08:54:20;29.20;99.90
7572;DHT22;3827;49.928;8.548;2023-06-22T08:56:47;29.40;99.90
7572;DHT22;3827;49.928;8.548;2023-06-22T08:59:13;29.30;99.90
7572;DHT22;3827;49.928;8.548;2023-06-22T09:01:40;29.50;99.90
7572;DHT22;3827;49.928;8.548;2023-06-22T09:04:11;30.10;99.90
7572;DHT22;3827;49.928;8.548;2023-06-22T09:06:37;30.30;99.90
7572;DHT22;3827;49.928;8.548;2023-06-22T09:09:10;30.80;99.90
7572;DHT22;3827;49.928;8.548;2023-06-22T09:11:38;30.80;99.90
7572;DHT22;3827;49.928;8.548;2023-06-22T09:14:05;30.70;99.90
7572;DHT22;3827;49.928;8.548;2023-06-22T09:16:32;30.70;99.90
7572;DHT22;3827;49.928;8.548;2023-06-22T09:18:59;31.00;99.90
7572;DHT22;3827;49.928;8.548;2023-06-22T09:21:26;31.10;99.90
7572;DHT22;3827;49.928;8.548;2023-06-22T09:23:53;31.20;99.90
7572;DHT22;3827;49.928;8.548;2023-06-22T09:26:20;31.60;99.90
7572;DHT22;3827;49.928;8.548;2023-06-22T09:28:49;31.70;99.90
7572;DHT22;3827;49.928;8.548;2023-06-22T09:31:16;32.10;99.90
7572;DHT22;3827;49.928;8.548;2023-06-22T09:33:51;31.70;99.90
7572;DHT22;3827;49.928;8.548;2023-06-22T09:36:17;31.20;99.90
7572;DHT22;3827;49.928;8.548;2023-06-22T09:38:44;31.40;99.90
7572;DHT22;3827;49.928;8.548;2023-06-22T09:41:11;31.60;99.90
7572;DHT22;3827;49.928;8.548;2023-06-22T09:43:38;31.70;99.90
7572;DHT22;3827;49.928;8.548;2023-06-22T09:46:06;32.00;99.90
7572;DHT22;3827;49.928;8.548;2023-06-22T09:48:34;32.00;99.90
7572;DHT22;3827;49.928;8.548;2023-06-22T09:51:01;32.00;99.90
7572;DHT22;3827;49.928;8.548;2023-06-22T09:53:28;31.90;99.90
7572;DHT22;3827;49.928;8.548;2023-06-22T09:55:55;32.00;99.90
7572;DHT22;3827;49.928;8.548;2023-06-22T09:58:22;32.20;99.90
7572;DHT22;3827;49.928;8.548;2023-06-22T10:00:49;32.50;99.90
7572;DHT22;3827;49.928;8.548;2023-06-22T10:03:17;32.50;99.90
7572;DHT22;3827;49.928;8.548;2023-06-22T10:05:44;32.90;99.90
7572;DHT22;3827;49.928;8.548;2023-06-22T10:08:11;33.10;99.90
7572;DHT22;3827;49.928;8.548;2023-06-22T10:10:37;33.00;99.90
7572;DHT22;3827;49.928;8.548;2023-06-22T10:13:08;33.00;99.90
7572;DHT22;3827;49.928;8.548;2023-06-22T10:15:36;33.20;99.90
7572;DHT22;3827;49.928;8.548;2023-06-22T10:18:03;33.50;99.90
7572;DHT22;3827;49.928;8.548;2023-06-22T10:20:31;33.90;99.90
7572;DHT22;3827;49.928;8.548;2023-06-22T10:22:58;33.40;99.90
7572;DHT22;3827;49.928;8.548;2023-06-22T10:25:26;33.70;99.90
7572;DHT22;3827;49.928;8.548;2023-06-22T10:27:53;33.00;99.90
7572;DHT22;3827;49.928;8.548;2023-06-22T10:30:19;33.20;99.90
7572;DHT22;3827;49.928;8.548;2023-06-22T10:32:46;33.30;99.90
7572;DHT22;3827;49.928;8.548;2023-06-22T10:35:13;33.80;99.90
7572;DHT22;3827;49.928;8.548;2023-06-22T10:37:43;33.50;99.90
7572;DHT22;3827;49.928;8.548;2023-06-22T10:40:11;34.40;99.90
7572;DHT22;3827;49.928;8.548;2023-06-22T10:42:38;35.50;99.90
7572;DHT22;3827;49.928;8.548;2023-06-22T10:45:06;35.10;99.90
7572;DHT22;3827;49.928;8.548;2023-06-22T10:47:34;35.20;99.90
7572;DHT22;3827;49.928;8.548;2023-06-22T10:50:01;34.80;99.90
7572;DHT22;3827;49.928;8.548;2023-06-22T10:52:28;35.10;99.90
7572;DHT22;3827;49.928;8.548;2023-06-22T10:54:56;34.90;99.90
7572;DHT22;3827;49.928;8.548;2023-06-22T10:57:22;34.70;99.90
7572;DHT22;3827;49.928;8.548;2023-06-22T10:59:49;34.40;99.90
7572;DHT22;3827;49.928;8.548;2023-06-22T11:02:16;34.50;99.90
7572;DHT22;3827;49.928;8.548;2023-06-22T11:04:43;34.60;99.90
7572;DHT22;3827;49.928;8.548;2023-06-22T11:07:11;34.90;99.90
7572;DHT22;3827;49.928;8.548;2023-06-22T11:09:38;35.40;99.90
7572;DHT22;3827;49.928;8.548;2023-06-22T11:12:07;36.10;99.90
7572;DHT22;3827;49.928;8.548;2023-06-22T11:14:33;36.30;99.90
7572;DHT22;3827;49.928;8.548;2023-06-22T11:17:00;35.90;99.90
7572;DHT22;3827;49.928;8.548;2023-06-22T11:19:27;35.60;99.90
7572;DHT22;3827;49.928;8.548;2023-06-22T11:21:54;35.70;99.90
7572;DHT22;3827;49.928;8.548;2023-06-22T11:24:21;35.20;99.90
7572;DHT22;3827;49.928;8.548;2023-06-22T11:26:48;35.10;99.90
7572;DHT22;3827;49.928;8.548;2023-06-22T11:29:16;35.60;99.90
7572;DHT22;3827;49.928;8.548;2023-06-22T11:31:43;34.90;99.90
7572;DHT22;3827;49.928;8.548;2023-06-22T11:34:10;35.20;99.90
7572;DHT22;3827;49.928;8.548;2023-06-22T11:36:36;35.10;99.90
7572;DHT22;3827;49.928;8.548;2023-06-22T11:39:03;34.90;99.90
7572;DHT22;3827;49.928;8.548;2023-06-22T11:41:31;34.80;99.90
7572;DHT22;3827;49.928;8.548;2023-06-22T11:43:58;34.90;99.90
7572;DHT22;3827;49.928;8.548;2023-06-22T11:46:26;35.40;99.90
7572;DHT22;3827;49.928;8.548;2023-06-22T11:48:53;35.40;99.90
7572;DHT22;3827;49.928;8.548;2023-06-22T11:51:20;35.60;99.90
7572;DHT22;3827;49.928;8.548;2023-06-22T11:53:46;35.40;99.90
7572;DHT22;3827;49.928;8.548;2023-06-22T11:56:13;35.80;99.90
7572;DHT22;3827;49.928;8.548;2023-06-22T11:58:40;35.70;99.90
7572;DHT22;3827;49.928;8.548;2023-06-22T12:01:07;35.30;99.90
7572;DHT22;3827;49.928;8.548;2023-06-22T12:03:35;35.70;99.90
7572;DHT22;3827;49.928;8.548;2023-06-22T12:06:02;35.30;99.90
7572;DHT22;3827;49.928;8.548;2023-06-22T12:08:29;35.70;99.90
7572;DHT22;3827;49.928;8.548;2023-06-22T12:10:56;35.80;99.90
7572;DHT22;3827;49.928;8.548;2023-06-22T12:13:23;36.40;99.90
7572;DHT22;3827;49.928;8.548;2023-06-22T12:15:50;36.90;99.90
7572;DHT22;3827;49.928;8.548;2023-06-22T12:18:17;36.20;99.90
7572;DHT22;3827;49.928;8.548;2023-06-22T12:20:47;36.50;99.90
7572;DHT22;3827;49.928;8.548;2023-06-22T12:23:14;35.90;99.90
7572;DHT22;3827;49.928;8.548;2023-06-22T12:25:41;36.20;99.90
7572;DHT22;3827;49.928;8.548;2023-06-22T12:28:08;35.90;99.90
7572;DHT22;3827;49.928;8.548;2023-06-22T12:30:35;35.50;99.90
7572;DHT22;3827;49.928;8.548;2023-06-22T12:33:01;35.80;99.90
7572;DHT22;3827;49.928;8.548;2023-06-22T12:35:28;35.70;99.90
7572;DHT22;3827;49.928;8.548;2023-06-22T12:37:56;35.60;99.90
7572;DHT22;3827;49.928;8.548;2023-06-22T12:40:24;35.30;99.90
7572;DHT22;3827;49.928;8.548;2023-06-22T12:42:51;35.30;99.90
7572;DHT22;3827;49.928;8.548;2023-06-22T12:45:17;35.70;99.90
7572;DHT22;3827;49.928;8.548;2023-06-22T12:47:46;35.80;99.90
7572;DHT22;3827;49.928;8.548;2023-06-22T12:50:15;35.90;99.90
7572;DHT22;3827;49.928;8.548;2023-06-22T12:52:42;36.40;99.90
7572;DHT22;3827;49.928;8.548;2023-06-22T12:55:10;36.30;99.90
7572;DHT22;3827;49.928;8.548;2023-06-22T12:57:37;36.30;99.90
7572;DHT22;3827;49.928;8.548;2023-06-22T13:00:05;36.70;99.90
7572;DHT22;3827;49.928;8.548;2023-06-22T13:02:33;36.30;99.90
7572;DHT22;3827;49.928;8.548;2023-06-22T13:05:01;36.60;99.90
7572;DHT22;3827;49.928;8.548;2023-06-22T13:07:28;37.00;99.90
7572;DHT22;3827;49.928;8.548;2023-06-22T13:09:54;36.70;99.90
7572;DHT22;3827;49.928;8.548;2023-06-22T13:12:23;36.30;99.90
7572;DHT22;3827;49.928;8.548;2023-06-22T13:14:49;36.10;99.90
7572;DHT22;3827;49.928;8.548;2023-06-22T13:17:16;36.30;99.90
7572;DHT22;3827;49.928;8.548;2023-06-22T13:19:43;36.40;99.90
7572;DHT22;3827;49.928;8.548;2023-06-22T13:22:27;36.20;99.90
7572;DHT22;3827;49.928;8.548;2023-06-22T13:24:54;36.20;99.90
7572;DHT22;3827;49.928;8.548;2023-06-22T13:27:23;36.50;99.90
7572;DHT22;3827;49.928;8.548;2023-06-22T13:29:50;36.90;99.90
7572;DHT22;3827;49.928;8.548;2023-06-22T13:32:17;37.20;99.90
7572;DHT22;3827;49.928;8.548;2023-06-22T13:34:44;37.90;99.90
7572;DHT22;3827;49.928;8.548;2023-06-22T13:37:10;38.10;99.90
7572;DHT22;3827;49.928;8.548;2023-06-22T13:39:37;38.40;99.90
7572;DHT22;3827;49.928;8.548;2023-06-22T13:42:05;38.60;99.90
7572;DHT22;3827;49.928;8.548;2023-06-22T13:44:33;38.60;99.90
7572;DHT22;3827;49.928;8.548;2023-06-22T13:47:00;38.60;99.90
7572;DHT22;3827;49.928;8.548;2023-06-22T13:49:27;38.30;99.90
7572;DHT22;3827;49.928;8.548;2023-06-22T13:51:55;38.00;99.90
7572;DHT22;3827;49.928;8.548;2023-06-22T13:54:22;38.00;99.90
7572;DHT22;3827;49.928;8.548;2023-06-22T13:56:48;38.40;99.90
7572;DHT22;3827;49.928;8.548;2023-06-22T13:59:15;38.80;99.90
7572;DHT22;3827;49.928;8.548;2023-06-22T14:01:43;39.00;99.90
7572;DHT22;3827;49.928;8.548;2023-06-22T14:04:10;38.10;99.90
7572;DHT22;3827;49.928;8.548;2023-06-22T14:06:38;38.20;99.90
7572;DHT22;3827;49.928;8.548;2023-06-22T14:09:05;38.20;99.90
7572;DHT22;3827;49.928;8.548;2023-06-22T14:11:32;38.30;99.90
7572;DHT22;3827;49.928;8.548;2023-06-22T14:13:59;38.70;99.90
7572;DHT22;3827;49.928;8.548;2023-06-22T14:16:26;39.40;99.90
7572;DHT22;3827;49.928;8.548;2023-06-22T14:18:54;39.40;99.90
7572;DHT22;3827;49.928;8.548;2023-06-22T14:21:21;39.20;99.90
7572;DHT22;3827;49.928;8.548;2023-06-22T14:23:48;39.20;99.90
7572;DHT22;3827;49.928;8.548;2023-06-22T14:26:15;39.50;99.90
7572;DHT22;3827;49.928;8.548;2023-06-22T14:28:44;39.00;99.90
7572;DHT22;3827;49.928;8.548;2023-06-22T14:31:13;38.70;99.90
7572;DHT22;3827;49.928;8.548;2023-06-22T14:33:40;38.30;99.90
7572;DHT22;3827;49.928;8.548;2023-06-22T14:36:10;38.30;99.90
7572;DHT22;3827;49.928;8.548;2023-06-22T14:38:37;38.00;99.90
7572;DHT22;3827;49.928;8.548;2023-06-22T14:41:05;37.80;99.90
7572;DHT22;3827;49.928;8.548;2023-06-22T14:43:32;37.80;99.90
7572;DHT22;3827;49.928;8.548;2023-06-22T14:45:59;37.70;99.90
7572;DHT22;3827;49.928;8.548;2023-06-22T14:48:26;37.20;99.90
7572;DHT22;3827;49.928;8.548;2023-06-22T14:50:53;36.80;99.90
7572;DHT22;3827;49.928;8.548;2023-06-22T14:53:21;36.80;99.90
7572;DHT22;3827;49.928;8.548;2023-06-22T14:55:48;36.10;99.90
7572;DHT22;3827;49.928;8.548;2023-06-22T14:58:15;35.90;99.90
7572;DHT22;3827;49.928;8.548;2023-06-22T15:00:42;35.30;99.90
7572;DHT22;3827;49.928;8.548;2023-06-22T15:03:09;34.70;99.90
7572;DHT22;3827;49.928;8.548;2023-06-22T15:05:42;34.30;99.90
7572;DHT22;3827;49.928;8.548;2023-06-22T15:08:09;34.00;99.90
7572;DHT22;3827;49.928;8.548;2023-06-22T15:10:37;34.10;99.90
7572;DHT22;3827;49.928;8.548;2023-06-22T15:13:04;34.30;99.90
7572;DHT22;3827;49.928;8.548;2023-06-22T15:15:31;34.70;99.90
7572;DHT22;3827;49.928;8.548;2023-06-22T15:17:59;34.70;99.90
7572;DHT22;3827;49.928;8.548;2023-06-22T15:20:26;34.80;99.90
7572;DHT22;3827;49.928;8.548;2023-06-22T15:22:52;35.10;99.90
7572;DHT22;3827;49.928;8.548;2023-06-22T15:25:20;34.80;99.90
7572;DHT22;3827;49.928;8.548;2023-06-22T15:27:48;34.80;99.90
7572;DHT22;3827;49.928;8.548;2023-06-22T15:30:15;34.90;99.90
7572;DHT22;3827;49.928;8.548;2023-06-22T15:32:43;35.00;99.90
7572;DHT22;3827;49.928;8.548;2023-06-22T15:35:10;34.90;99.90
7572;DHT22;3827;49.928;8.548;2023-06-22T15:37:37;35.00;99.90
7572;DHT22;3827;49.928;8.548;2023-06-22T15:40:04;35.00;99.90
7572;DHT22;3827;49.928;8.548;2023-06-22T15:42:32;34.90;99.90
7572;DHT22;3827;49.928;8.548;2023-06-22T15:45:00;34.50;99.90
7572;DHT22;3827;49.928;8.548;2023-06-22T15:47:27;34.30;99.90
7572;DHT22;3827;49.928;8.548;2023-06-22T15:49:53;34.10;99.90
7572;DHT22;3827;49.928;8.548;2023-06-22T15:52:20;33.60;99.90
7572;DHT22;3827;49.928;8.548;2023-06-22T15:54:47;33.20;99.90
7572;DHT22;3827;49.928;8.548;2023-06-22T15:57:15;32.80;99.90
7572;DHT22;3827;49.928;8.548;2023-06-22T15:59:42;32.50;99.90
7572;DHT22;3827;49.928;8.548;2023-06-22T16:02:11;32.40;99.90
7572;DHT22;3827;49.928;8.548;2023-06-22T16:04:38;32.20;99.90